createdAt,value
2022-10-23T00:00:40.336Z,2.20
2022-10-23T00:03:06.241Z,2.20
2022-10-23T00:05:32.127Z,2.20
2022-10-23T00:07:59.553Z,1.92
2022-10-23T00:10:27.153Z,1.98
2022-10-23T00:12:54.448Z,2.78
2022-10-23T00:15:22.048Z,2.28
2022-10-23T00:17:48.774Z,2.00
2022-10-23T00:20:16.228Z,2.03
2022-10-23T00:22:42.116Z,2.08
2022-10-23T00:25:09.036Z,2.00
2022-10-23T00:27:34.911Z,2.35
2022-10-23T00:30:01.085Z,1.95
2022-10-23T00:32:27.455Z,2.25
2022-10-23T00:34:53.541Z,1.70
2022-10-23T00:37:19.451Z,2.10
2022-10-23T00:39:45.284Z,1.77
2022-10-23T00:42:16.992Z,2.17
2022-10-23T00:44:42.697Z,1.98
2022-10-23T00:47:09.662Z,1.80
2022-10-23T00:49:36.700Z,1.65
2022-10-23T00:52:07.737Z,2.35
2022-10-23T00:54:40.088Z,1.77
2022-10-23T00:57:10.858Z,2.08
2022-10-23T00:59:37.419Z,1.70
2022-10-23T01:02:04.340Z,1.95
2022-10-23T01:04:31.344Z,1.35
2022-10-23T01:07:21.893Z,2.05
2022-10-23T01:10:10.822Z,2.40
2022-10-23T01:12:59.443Z,1.70
2022-10-23T01:15:27.971Z,2.05
2022-10-23T01:18:13.972Z,1.85
2022-10-23T01:20:48.086Z,2.10
2022-10-23T01:23:53.814Z,1.92
2022-10-23T01:26:22.660Z,2.05
2022-10-23T01:29:08.010Z,1.83
2022-10-23T01:31:44.268Z,1.75
2022-10-23T01:34:19.113Z,1.52
2022-10-23T01:36:48.390Z,1.52
2022-10-23T01:39:27.021Z,1.45
2022-10-23T01:41:58.745Z,1.80
2022-10-23T01:44:35.256Z,1.70
2022-10-23T01:47:04.120Z,1.77
2022-10-23T01:49:31.621Z,1.98
2022-10-23T01:52:02.510Z,1.90
2022-10-23T01:54:31.894Z,2.25
2022-10-23T01:56:58.530Z,1.80
2022-10-23T01:59:34.553Z,1.60
2022-10-23T02:02:02.361Z,1.73
2022-10-23T02:04:32.798Z,1.70
2022-10-23T02:06:58.723Z,1.42
2022-10-23T02:09:24.797Z,1.63
2022-10-23T02:11:57.300Z,2.90
2022-10-23T02:14:35.162Z,2.13
2022-10-23T02:17:12.007Z,1.83
2022-10-23T02:20:06.307Z,2.13
2022-10-23T02:22:48.096Z,1.63
2022-10-23T02:25:19.372Z,2.33
2022-10-23T02:27:49.927Z,1.70
2022-10-23T02:30:18.394Z,1.88
2022-10-23T02:32:48.502Z,1.70
2022-10-23T02:35:17.087Z,1.80
2022-10-23T02:37:43.214Z,1.60
2022-10-23T02:40:10.828Z,1.67
2022-10-23T02:42:44.767Z,2.10
2022-10-23T02:45:23.547Z,1.40
2022-10-23T02:47:58.946Z,1.70
2022-10-23T02:53:04.656Z,1.38
2022-10-23T02:55:45.587Z,1.90
2022-10-23T02:58:20.637Z,1.95
2022-10-23T03:01:03.782Z,1.75
2022-10-23T03:03:34.501Z,1.60
2022-10-23T03:06:00.592Z,2.10
2022-10-23T03:08:26.376Z,2.28
2022-10-23T03:10:52.279Z,1.92
2022-10-23T03:13:18.193Z,2.83
2022-10-23T03:15:44.036Z,2.83
2022-10-23T03:18:09.848Z,2.00
2022-10-23T03:20:35.718Z,2.10
2022-10-23T03:23:01.554Z,1.90
2022-10-23T03:25:27.813Z,2.20
2022-10-23T03:27:53.686Z,2.20
2022-10-23T03:30:19.675Z,2.08
2022-10-23T03:32:45.781Z,2.10
2022-10-23T03:35:11.654Z,1.90
2022-10-23T03:37:37.454Z,2.58
2022-10-23T03:40:04.116Z,2.50
2022-10-23T03:42:29.892Z,1.50
2022-10-23T03:44:55.681Z,1.95
2022-10-23T03:47:21.470Z,2.47
2022-10-23T03:49:47.282Z,2.08
2022-10-23T03:52:13.144Z,2.17
2022-10-23T03:54:38.897Z,1.98
2022-10-23T03:57:04.680Z,2.78
2022-10-23T03:59:30.494Z,1.90
2022-10-23T04:01:56.408Z,1.90
2022-10-23T04:04:22.307Z,1.92
2022-10-23T04:06:48.080Z,2.70
2022-10-23T04:09:13.982Z,1.70
2022-10-23T04:11:39.746Z,2.05
2022-10-23T04:14:05.545Z,1.98
2022-10-23T04:16:31.357Z,1.80
2022-10-23T04:18:57.127Z,1.63
2022-10-23T04:21:23.172Z,2.78
2022-10-23T04:23:48.972Z,2.30
2022-10-23T04:26:14.757Z,1.80
2022-10-23T04:28:40.558Z,1.95
2022-10-23T04:31:06.379Z,2.05
2022-10-23T04:33:32.386Z,2.05
2022-10-23T04:35:58.156Z,1.65
2022-10-23T04:38:24.005Z,2.22
2022-10-23T04:40:49.774Z,2.08
2022-10-23T04:43:15.529Z,2.45
2022-10-23T04:45:41.372Z,2.47
2022-10-23T04:48:07.198Z,3.63
2022-10-23T04:50:33.041Z,2.67
2022-10-23T04:52:58.880Z,1.80
2022-10-23T04:55:24.995Z,2.13
2022-10-23T04:57:51.603Z,2.90
2022-10-23T05:00:18.716Z,5.10
2022-10-23T05:02:45.209Z,3.38
2022-10-23T05:05:11.201Z,2.05
2022-10-23T05:07:37.566Z,2.13
2022-10-23T05:10:04.642Z,3.03
2022-10-23T05:12:30.493Z,2.15
2022-10-23T05:14:56.421Z,2.03
2022-10-23T05:17:28.493Z,1.85
2022-10-23T05:19:56.975Z,1.98
2022-10-23T05:22:26.451Z,1.98
2022-10-23T05:24:53.743Z,1.92
2022-10-23T05:27:19.656Z,1.60
2022-10-23T05:29:45.500Z,1.50
2022-10-23T05:32:13.748Z,1.67
2022-10-23T05:34:40.862Z,1.65
2022-10-23T05:37:09.785Z,2.00
2022-10-23T05:39:35.870Z,1.83
2022-10-23T05:42:01.654Z,1.15
2022-10-23T05:44:27.405Z,3.40
2022-10-23T05:46:53.231Z,1.67
2022-10-23T05:49:18.991Z,1.83
2022-10-23T05:51:44.838Z,1.40
2022-10-23T05:54:10.659Z,1.95
2022-10-23T05:56:40.717Z,1.60
2022-10-23T05:59:07.231Z,1.58
2022-10-23T06:01:33.486Z,1.40
2022-10-23T06:04:00.082Z,2.17
2022-10-23T06:06:26.230Z,3.25
2022-10-23T06:08:52.267Z,1.52
2022-10-23T06:11:18.557Z,1.90
2022-10-23T06:13:45.887Z,1.33
2022-10-23T06:16:20.018Z,1.75
2022-10-23T06:18:46.476Z,1.67
2022-10-23T06:21:13.236Z,1.38
2022-10-23T06:23:40.453Z,1.67
2022-10-23T06:26:08.865Z,1.70
2022-10-23T06:28:35.326Z,1.60
2022-10-23T06:31:09.623Z,2.00
2022-10-23T06:33:35.705Z,1.83
2022-10-23T06:36:02.858Z,1.58
2022-10-23T06:38:28.820Z,1.75
2022-10-23T06:40:55.925Z,1.67
2022-10-23T06:43:21.847Z,1.80
2022-10-23T06:45:48.424Z,1.80
2022-10-23T06:48:14.986Z,2.17
2022-10-23T06:50:40.965Z,3.78
2022-10-23T06:53:07.258Z,2.15
2022-10-23T06:55:33.160Z,1.40
2022-10-23T06:57:59.019Z,1.55
2022-10-23T07:00:25.285Z,1.42
2022-10-23T07:02:52.383Z,2.95
2022-10-23T07:05:19.598Z,1.70
2022-10-23T07:07:45.462Z,2.10
2022-10-23T07:10:11.413Z,1.48
2022-10-23T07:12:37.290Z,1.63
2022-10-23T07:15:03.527Z,1.60
2022-10-23T07:17:29.380Z,1.40
2022-10-23T07:19:55.258Z,1.90
2022-10-23T07:22:21.446Z,1.67
2022-10-23T07:24:47.280Z,1.48
2022-10-23T07:27:13.130Z,1.38
2022-10-23T07:29:38.889Z,1.13
2022-10-23T07:32:05.057Z,2.25
2022-10-23T07:34:31.397Z,1.52
2022-10-23T07:36:57.175Z,1.42
2022-10-23T07:39:23.207Z,1.60
2022-10-23T07:41:49.446Z,1.80
2022-10-23T07:44:15.246Z,1.73
2022-10-23T07:46:41.105Z,1.38
2022-10-23T07:49:07.009Z,1.70
2022-10-23T07:51:32.851Z,1.40
2022-10-23T07:54:00.488Z,1.30
2022-10-23T07:56:30.851Z,2.00
2022-10-23T07:58:57.200Z,1.30
2022-10-23T08:01:29.742Z,1.45
2022-10-23T08:03:55.642Z,1.73
2022-10-23T08:06:21.555Z,1.88
2022-10-23T08:08:47.348Z,1.20
2022-10-23T08:11:14.996Z,1.60
2022-10-23T08:13:40.946Z,1.20
2022-10-23T08:16:07.136Z,1.50
2022-10-23T08:18:33.065Z,1.02
2022-10-23T08:21:01.380Z,1.13
2022-10-23T08:23:29.804Z,1.30
2022-10-23T08:26:00.497Z,1.38
2022-10-23T08:28:27.878Z,1.23
2022-10-23T08:30:54.441Z,1.02
2022-10-23T08:33:21.222Z,1.13
2022-10-23T08:35:47.267Z,1.40
2022-10-23T08:38:13.200Z,1.30
2022-10-23T08:40:45.170Z,1.40
2022-10-23T08:43:10.908Z,0.95
2022-10-23T08:45:48.984Z,1.23
2022-10-23T08:48:30.816Z,1.00
2022-10-23T08:51:41.051Z,1.35
2022-10-23T08:54:33.351Z,1.05
2022-10-23T08:57:17.088Z,1.20
2022-10-23T09:00:07.049Z,1.45
2022-10-23T09:02:41.868Z,1.20
2022-10-23T09:05:20.730Z,1.25
2022-10-23T09:08:04.869Z,1.00
2022-10-23T09:10:55.829Z,1.08
2022-10-23T09:13:46.483Z,0.98
2022-10-23T09:16:37.345Z,1.38
2022-10-23T09:19:12.194Z,1.08
2022-10-23T09:21:38.338Z,1.23
2022-10-23T09:24:04.557Z,1.00
2022-10-23T09:26:30.454Z,0.82
2022-10-23T09:29:06.966Z,0.90
2022-10-23T09:31:32.879Z,1.30
2022-10-23T09:34:00.655Z,0.85
2022-10-23T09:36:28.694Z,1.23
2022-10-23T09:38:58.146Z,1.00
2022-10-23T09:41:42.270Z,1.05
2022-10-23T09:44:08.020Z,1.13
2022-10-23T09:46:45.599Z,0.85
2022-10-23T09:49:17.593Z,0.93
2022-10-23T09:51:55.582Z,1.00
2022-10-23T09:54:23.416Z,1.40
2022-10-23T09:56:50.776Z,1.00
2022-10-23T09:59:29.600Z,1.00
2022-10-23T10:01:59.561Z,1.15
2022-10-23T10:04:37.411Z,1.15
2022-10-23T10:07:06.260Z,1.20
2022-10-23T10:09:32.807Z,1.42
2022-10-23T10:12:16.643Z,1.98
2022-10-23T10:15:07.115Z,1.15
2022-10-23T10:17:39.002Z,1.08
2022-10-23T10:20:20.009Z,1.15
2022-10-23T10:23:23.566Z,1.00
2022-10-23T10:26:03.671Z,1.35
2022-10-23T10:29:01.652Z,1.27
2022-10-23T10:32:05.780Z,1.00
2022-10-23T10:34:46.636Z,1.38
2022-10-23T10:37:33.198Z,1.17
2022-10-23T10:40:13.302Z,1.27
2022-10-23T10:42:43.384Z,1.10
2022-10-23T10:45:30.246Z,1.23
2022-10-23T10:48:01.840Z,1.85
2022-10-23T10:50:49.166Z,1.48
2022-10-23T10:53:37.812Z,1.00
2022-10-23T10:56:07.864Z,0.90
2022-10-23T10:58:47.140Z,0.85
2022-10-23T11:01:38.205Z,1.02
2022-10-23T11:04:22.200Z,1.00
2022-10-23T11:06:53.316Z,0.80
2022-10-23T11:09:28.636Z,1.17
2022-10-23T11:11:54.539Z,1.23
2022-10-23T11:14:35.061Z,1.20
2022-10-23T11:17:29.604Z,0.93
2022-10-23T11:20:05.085Z,1.05
2022-10-23T11:22:55.934Z,1.20
2022-10-23T11:25:59.451Z,1.27
2022-10-23T11:29:01.482Z,0.95
2022-10-23T11:32:09.222Z,2.00
2022-10-23T11:35:09.813Z,1.08
2022-10-23T11:37:35.574Z,2.30
2022-10-23T11:40:18.713Z,1.30
2022-10-23T11:42:47.588Z,1.10
2022-10-23T11:45:30.369Z,1.17
2022-10-23T11:48:12.739Z,1.10
2022-10-23T11:50:44.321Z,1.00
2022-10-23T11:53:31.877Z,1.20
2022-10-23T11:56:20.812Z,1.17
2022-10-23T11:58:46.701Z,1.02
2022-10-23T12:01:23.849Z,1.08
2022-10-23T12:03:59.791Z,1.10
2022-10-23T12:06:31.128Z,1.20
2022-10-23T12:09:01.905Z,1.58
2022-10-23T12:11:43.421Z,1.30
2022-10-23T12:26:21.423Z,1.58
2022-10-23T12:31:37.291Z,1.30
2022-10-23T12:34:50.475Z,1.73
2022-10-23T12:37:19.059Z,1.60
2022-10-23T12:39:51.986Z,1.30
2022-10-23T12:42:23.945Z,1.17
2022-10-23T12:45:28.885Z,1.38
2022-10-23T12:47:55.012Z,1.00
2022-10-23T12:50:32.185Z,1.50
2022-10-23T12:53:00.514Z,1.42
2022-10-23T12:55:30.929Z,0.95
2022-10-23T12:57:59.412Z,1.30
2022-10-23T13:00:25.221Z,1.25
2022-10-23T13:03:01.638Z,1.15
2022-10-23T13:05:29.049Z,1.23
2022-10-23T13:07:57.494Z,1.48
2022-10-23T13:10:24.301Z,1.63
2022-10-23T13:12:55.502Z,1.50
2022-10-23T13:15:22.639Z,1.10
2022-10-23T13:17:57.289Z,1.30
2022-10-23T13:20:34.466Z,1.40
2022-10-23T13:23:14.956Z,1.60
2022-10-23T13:25:40.915Z,1.60
2022-10-23T13:28:28.607Z,1.40
2022-10-23T13:31:17.778Z,1.60
2022-10-23T13:33:52.336Z,1.20
2022-10-23T13:36:20.580Z,1.90
2022-10-23T13:39:06.090Z,1.42
2022-10-23T13:41:43.792Z,1.30
2022-10-23T13:44:15.270Z,1.45
2022-10-23T13:46:41.657Z,1.80
2022-10-23T13:49:07.687Z,1.75
2022-10-23T13:51:58.666Z,1.17
2022-10-23T13:56:59.770Z,1.65
2022-10-23T13:59:25.875Z,1.50
2022-10-23T14:01:52.150Z,2.10
2022-10-23T14:04:19.441Z,1.58
2022-10-23T14:06:45.444Z,2.15
2022-10-23T14:09:15.157Z,1.50
2022-10-23T14:11:41.489Z,1.90
2022-10-23T14:14:08.064Z,1.55
2022-10-23T14:16:34.080Z,1.85
2022-10-23T14:19:00.077Z,1.42
2022-10-23T14:21:25.901Z,1.58
2022-10-23T14:23:53.357Z,1.48
2022-10-23T14:26:22.962Z,1.58
2022-10-23T14:28:51.825Z,1.95
2022-10-23T14:31:18.147Z,1.10
2022-10-23T14:33:45.454Z,1.70
2022-10-23T14:36:11.907Z,1.35
2022-10-23T14:38:37.898Z,1.67
2022-10-23T14:41:10.409Z,1.40
2022-10-23T14:43:36.252Z,1.73
2022-10-23T14:46:13.522Z,1.77
2022-10-23T14:48:42.449Z,1.30
2022-10-23T14:51:20.044Z,1.70
2022-10-23T14:53:47.047Z,1.67
2022-10-23T14:56:13.239Z,1.70
2022-10-23T14:58:39.096Z,3.13
2022-10-23T15:01:05.292Z,2.10
2022-10-23T15:03:31.182Z,2.30
2022-10-23T15:05:57.163Z,1.65
2022-10-23T15:08:23.555Z,2.00
2022-10-23T15:10:49.813Z,1.50
2022-10-23T15:13:15.721Z,1.58
2022-10-23T15:15:41.651Z,1.77
2022-10-23T15:18:07.506Z,2.53
2022-10-23T15:20:33.306Z,1.92
2022-10-23T15:23:00.669Z,1.60
2022-10-23T15:25:26.835Z,1.77
2022-10-23T15:27:52.696Z,1.55
2022-10-23T15:30:18.623Z,2.10
2022-10-23T15:32:44.777Z,2.00
2022-10-23T15:35:10.558Z,1.58
2022-10-23T15:37:36.441Z,2.03
2022-10-23T15:40:02.880Z,1.92
2022-10-23T15:42:28.784Z,2.25
2022-10-23T15:44:54.614Z,2.05
2022-10-23T15:47:20.511Z,2.10
2022-10-23T15:49:46.363Z,1.85
2022-10-23T15:52:12.337Z,2.03
2022-10-23T15:54:38.172Z,1.67
2022-10-23T15:57:04.171Z,2.00
2022-10-23T15:59:31.446Z,1.50
2022-10-23T16:01:57.608Z,2.40
2022-10-23T16:04:23.730Z,2.05
2022-10-23T16:06:49.720Z,1.92
2022-10-23T16:09:16.385Z,2.05
2022-10-23T16:11:43.400Z,1.55
2022-10-23T16:14:18.128Z,2.05
2022-10-23T16:16:44.038Z,1.88
2022-10-23T16:19:11.161Z,2.08
2022-10-23T16:21:37.096Z,1.67
2022-10-23T16:24:06.073Z,1.98
2022-10-23T16:26:33.477Z,2.22
2022-10-23T16:29:01.324Z,2.13
2022-10-23T16:31:27.657Z,1.80
2022-10-23T16:36:21.787Z,2.15
2022-10-23T16:38:47.810Z,2.17
2022-10-23T16:41:13.828Z,2.00
2022-10-23T16:43:42.379Z,2.38
2022-10-23T16:46:12.598Z,1.80
2022-10-23T16:48:39.037Z,2.60
2022-10-23T16:51:07.104Z,2.00
2022-10-23T16:53:33.825Z,2.42
2022-10-23T16:55:59.931Z,1.60
2022-10-23T16:58:26.582Z,2.15
2022-10-23T17:01:11.795Z,2.05
2022-10-23T17:03:41.952Z,2.80
2022-10-23T17:06:13.950Z,2.22
2022-10-23T17:08:40.426Z,2.05
2022-10-23T17:11:12.668Z,2.60
2022-10-23T17:13:47.766Z,2.15
2022-10-23T17:16:22.296Z,2.50
2022-10-23T17:18:49.087Z,2.65
2022-10-23T17:21:16.781Z,2.47
2022-10-23T17:23:43.145Z,2.95
2022-10-23T17:26:15.336Z,2.60
2022-10-23T17:28:42.724Z,2.70
2022-10-23T17:31:14.760Z,2.65
2022-10-23T17:33:41.598Z,3.60
2022-10-23T17:36:11.163Z,3.70
2022-10-23T17:38:39.158Z,2.58
2022-10-23T17:41:06.394Z,2.45
2022-10-23T17:43:32.884Z,3.03
2022-10-23T17:45:58.995Z,2.60
2022-10-23T17:48:28.403Z,3.00
2022-10-23T17:51:06.516Z,3.47
2022-10-23T17:53:34.321Z,3.22
2022-10-23T17:56:05.715Z,4.30
2022-10-23T17:58:32.289Z,3.50
2022-10-23T18:01:10.423Z,2.80
2022-10-23T18:03:37.858Z,3.97
2022-10-23T18:06:12.657Z,2.65
2022-10-23T18:08:40.085Z,2.65
2022-10-23T18:11:07.114Z,3.28
2022-10-23T18:13:35.939Z,3.60
2022-10-23T18:16:07.635Z,2.63
2022-10-23T18:18:34.130Z,2.65
2022-10-23T18:21:01.145Z,2.65
2022-10-23T18:23:28.245Z,2.28
2022-10-23T18:25:54.872Z,2.17
2022-10-23T18:28:20.928Z,2.35
2022-10-23T18:30:48.190Z,1.77
2022-10-23T18:33:15.718Z,1.98
2022-10-23T18:35:41.987Z,1.77
2022-10-23T18:38:09.267Z,2.22
2022-10-23T18:40:36.526Z,1.33
2022-10-23T18:43:03.491Z,1.52
2022-10-23T18:45:29.823Z,1.30
2022-10-23T18:47:55.670Z,1.80
2022-10-23T18:50:21.542Z,1.50
2022-10-23T18:52:47.708Z,1.80
2022-10-23T18:55:13.727Z,1.33
2022-10-23T18:57:39.906Z,1.25
2022-10-23T19:00:08.951Z,1.60
2022-10-23T19:02:35.965Z,1.30
2022-10-23T19:05:03.323Z,1.50
2022-10-23T19:07:29.288Z,1.13
2022-10-23T19:09:55.393Z,1.10
2022-10-23T19:12:22.021Z,1.05
2022-10-23T19:14:47.996Z,1.38
2022-10-23T19:17:18.879Z,1.80
2022-10-23T19:19:59.653Z,1.45
2022-10-23T19:22:28.056Z,1.08
2022-10-23T19:25:00.918Z,1.25
2022-10-23T19:27:26.993Z,1.05
2022-10-23T19:29:54.607Z,0.98
2022-10-23T19:32:21.717Z,0.95
2022-10-23T19:34:48.096Z,1.20
2022-10-23T19:37:15.351Z,1.55
2022-10-23T19:39:41.450Z,3.28
2022-10-23T19:42:08.176Z,1.48
2022-10-23T19:44:34.344Z,1.25
2022-10-23T19:47:00.395Z,1.45
2022-10-23T19:49:26.285Z,1.25
2022-10-23T19:51:52.194Z,1.25
2022-10-23T19:54:19.744Z,1.45
2022-10-23T19:56:45.535Z,1.58
2022-10-23T19:59:12.353Z,1.40
2022-10-23T20:01:38.957Z,1.45
2022-10-23T20:04:04.992Z,1.50
2022-10-23T20:06:34.002Z,1.67
2022-10-23T20:09:01.498Z,1.63
2022-10-23T20:11:29.857Z,1.95
2022-10-23T20:13:56.434Z,1.70
2022-10-23T20:16:25.406Z,1.73
2022-10-23T20:18:51.632Z,2.67
2022-10-23T20:21:18.307Z,1.80
2022-10-23T20:23:44.305Z,2.75
2022-10-23T20:26:12.588Z,2.60
2022-10-23T20:28:38.748Z,2.92
2022-10-23T20:31:07.790Z,2.90
2022-10-23T20:33:38.914Z,3.20
2022-10-23T20:36:07.673Z,2.85
2022-10-23T20:38:34.933Z,3.42
2022-10-23T20:41:05.095Z,2.88
2022-10-23T20:43:34.681Z,3.42
2022-10-23T20:46:08.876Z,3.63
2022-10-23T20:48:39.784Z,3.17
2022-10-23T20:51:09.012Z,2.90
2022-10-23T20:53:36.393Z,3.25
2022-10-23T20:56:11.108Z,2.80
2022-10-23T20:58:37.093Z,3.05
2022-10-23T21:01:08.522Z,3.00
2022-10-23T21:03:35.189Z,2.45
2022-10-23T21:06:14.640Z,3.08
2022-10-23T21:08:40.991Z,2.63
2022-10-23T21:11:09.634Z,2.65
2022-10-23T21:13:35.738Z,2.28
2022-10-23T21:16:24.779Z,1.95
2022-10-23T21:18:55.286Z,2.78
2022-10-23T21:21:21.754Z,3.60
2022-10-23T21:23:50.621Z,2.78
2022-10-23T21:26:20.270Z,3.08
2022-10-23T21:28:56.289Z,2.95
2022-10-23T21:31:34.812Z,2.88
2022-10-23T21:34:00.705Z,3.40
2022-10-23T21:36:28.349Z,2.53
2022-10-23T21:38:57.521Z,3.58
2022-10-23T21:41:26.061Z,3.50
2022-10-23T21:43:54.051Z,3.05
2022-10-23T21:46:20.301Z,4.10
2022-10-23T21:48:47.498Z,2.40
2022-10-23T21:51:37.260Z,3.08
2022-10-23T21:54:09.933Z,3.08
2022-10-23T21:56:57.636Z,3.53
2022-10-23T21:59:27.889Z,3.70
2022-10-23T22:01:56.233Z,3.40
2022-10-23T22:04:22.166Z,2.72
2022-10-23T22:06:49.163Z,3.40
2022-10-23T22:09:18.408Z,3.25
2022-10-23T22:11:44.248Z,2.90
2022-10-23T22:14:10.109Z,3.25
2022-10-23T22:16:35.927Z,3.40
2022-10-23T22:19:02.109Z,3.95
2022-10-23T22:21:29.318Z,3.85
2022-10-23T22:23:57.093Z,3.00
2022-10-23T22:26:29.042Z,3.22
2022-10-23T22:28:57.415Z,3.70
2022-10-23T22:31:26.254Z,4.00
2022-10-23T22:33:53.162Z,3.30
2022-10-23T22:36:18.984Z,3.50
2022-10-23T22:38:45.097Z,3.60
2022-10-23T22:41:11.605Z,3.65
2022-10-23T22:43:37.851Z,3.42
2022-10-23T22:46:04.886Z,4.00
2022-10-23T22:48:30.864Z,3.30
2022-10-23T22:50:56.892Z,3.22
2022-10-23T22:53:22.712Z,3.95
2022-10-23T22:55:48.562Z,2.83
2022-10-23T22:58:14.377Z,3.90
2022-10-23T23:00:42.884Z,3.40
2022-10-23T23:03:09.604Z,3.22
2022-10-23T23:08:12.809Z,4.05
2022-10-23T23:10:38.853Z,3.85
2022-10-23T23:13:04.991Z,3.40
2022-10-23T23:15:30.945Z,3.08
2022-10-23T23:17:56.683Z,3.72
2022-10-23T23:20:22.646Z,3.33
2022-10-23T23:22:48.412Z,3.42
2022-10-23T23:25:14.228Z,3.83
2022-10-23T23:27:40.098Z,4.13
2022-10-23T23:30:07.646Z,3.55
2022-10-23T23:32:34.841Z,3.70
2022-10-23T23:35:01.488Z,3.17
2022-10-23T23:37:27.371Z,3.38
2022-10-23T23:39:53.341Z,3.85
2022-10-23T23:42:19.185Z,3.85
2022-10-23T23:44:55.775Z,3.35
2022-10-23T23:47:28.864Z,4.18
2022-10-23T23:49:54.641Z,3.58
2022-10-23T23:52:20.552Z,4.20
2022-10-23T23:54:46.368Z,3.47
2022-10-23T23:57:12.350Z,4.20
2022-10-23T23:59:39.906Z,3.33
